METAR Formatted Surface Weather Observation
Issued by NWS

Home | Current Version | Previous Version | Text Only | Print | Product List | Glossary On
Versions: 1 2 3 4 5 6 7 8 9 10 11 12 13 14 15 16 17
000
SAUS46 KLOX 231153
MTRNZY
METAR KNZY 231152Z AUTO 26012KT 10SM SCT018 SCT036 14/11 A2994 RMK
AO2 RAB25E48 SLP138 6//// 7//// T01390106 10150 20139 58008 PNO $



USA.gov is the U.S. government's official web portal to all federal, state and local government web resources and services.